CYBD

Bella Coola Airport

Bella Coola, , Canada
METAR CYBD 200100Z 29014G20KT 15SM SCT090CB SCT120 SCT200 30/15 A2988 RMK CB3CC1CI1 CC TR CB N-NE-E LAST STFD OBS/NEXT 201300UTC SLP120 DENSITY ALT 1900FT
Observed Flight Rules
Jun-20 @ 01:00 UTC (5 hours ago) Visual Flight Rules
Wind Visibility Clouds
290° at 14 knots
 Gusting to 20 knots
15 miles
  • Scattered at 9,000' AGL
  • Scattered at 12,000' AGL
  • Scattered at 20,000' AGL
Temperatures Readings
Current 30°C / 86°F
Dewpoint 15°C / 59°F
Humidity 40%
Altimeter 29.88" Hg
Pressure 1012 hPa
Elevation 35
METAR CYBD 200100Z 29014G20KT 15SM SCT090CB SCT120 SCT200 30/15 A2988 RMK CB3CC1CI1 CC TR CB N-NE-E LAST STFD OBS/NEXT 201300UTC SLP120 DENSITY ALT 1900FT
Observed Flight Rules
Jun-20 @ 01:00 UTC
(5 hours ago)
VFR
Wind Visibility
290° at 14 knots
 Gusting to 20 knots
15 miles
Clouds
  • Scattered at 9,000' AGL
  • Scattered at 12,000' AGL
  • Scattered at 20,000' AGL
Temperature Dewpoint
30°C / 86°F 15°C / 59°F
Humidity Altimeter Pressure
40% 29.88" Hg 1012 hPa